createdAt,value
2019-05-12T00:00:51.920Z,100231.55
2019-05-12T00:03:13.270Z,100234.78
2019-05-12T00:05:35.016Z,100231.55
2019-05-12T00:07:58.868Z,100236.30
2019-05-12T00:10:19.722Z,100241.70
2019-05-12T00:12:42.110Z,100244.41
2019-05-12T00:15:03.489Z,100248.45
2019-05-12T00:17:28.314Z,100251.16
2019-05-12T00:19:48.539Z,100257.91
2019-05-12T00:22:10.207Z,100253.36
2019-05-12T00:24:32.417Z,100260.81
2019-05-12T00:26:53.414Z,100267.89
2019-05-12T00:29:15.404Z,100258.93
2019-05-12T00:31:38.283Z,100259.45
2019-05-12T00:34:00.022Z,100267.89
2019-05-12T00:36:21.538Z,100267.03
2019-05-12T00:38:43.085Z,100281.06
2019-05-12T00:41:04.618Z,100286.14
2019-05-12T00:43:28.167Z,100295.06
2019-05-12T00:45:50.695Z,100298.82
2019-05-12T00:48:12.667Z,100302.88
2019-05-12T00:50:34.524Z,100305.25
2019-05-12T00:52:57.958Z,100309.30
2019-05-12T00:55:20.192Z,100311.67
2019-05-12T00:57:42.424Z,100318.42
2019-05-12T01:00:03.936Z,100310.31
2019-05-12T01:02:25.984Z,100315.72
2019-05-12T01:04:48.680Z,100307.63
2019-05-12T01:07:14.081Z,100309.79
2019-05-12T01:09:35.478Z,100310.49
2019-05-12T01:11:58.787Z,100321.62
2019-05-12T01:14:20.018Z,100331.06
2019-05-12T01:16:41.931Z,100338.84
2019-05-12T01:19:03.509Z,100353.20
2019-05-12T01:21:24.642Z,100352.34
2019-05-12T01:23:56.383Z,100351.52
2019-05-12T01:26:09.463Z,100349.64
2019-05-12T01:28:31.736Z,100361.67
2019-05-12T01:30:54.063Z,100366.74
2019-05-12T01:33:15.501Z,100364.58
2019-05-12T01:35:39.007Z,100366.41
2019-05-12T01:38:01.635Z,100363.72
2019-05-12T01:40:23.697Z,100365.92
2019-05-12T01:42:45.355Z,100364.73
2019-05-12T01:45:09.234Z,100369.84
2019-05-12T01:47:30.455Z,100375.87
2019-05-12T01:49:51.750Z,100374.52
2019-05-12T01:52:13.528Z,100383.14
2019-05-12T01:54:37.967Z,100381.47
2019-05-12T01:56:59.402Z,100390.92
2019-05-12T01:59:21.349Z,100388.02
2019-05-12T02:01:43.439Z,100402.55
2019-05-12T02:04:05.078Z,100406.59
2019-05-12T02:06:27.850Z,100412.84
2019-05-12T02:08:50.234Z,100415.55
2019-05-12T02:11:11.926Z,100412.52
2019-05-12T02:13:34.083Z,100417.09
2019-05-12T02:15:57.886Z,100415.75
2019-05-12T02:18:19.278Z,100410.84
2019-05-12T02:20:41.772Z,100415.75
2019-05-12T02:23:03.527Z,100418.45
2019-05-12T02:25:25.718Z,100424.14
2019-05-12T02:27:47.773Z,100427.04
2019-05-12T02:30:10.392Z,100424.87
2019-05-12T02:32:43.356Z,100425.20
2019-05-12T02:34:55.291Z,100427.24
2019-05-12T02:37:17.420Z,100431.29
2019-05-12T02:39:39.467Z,100441.07
2019-05-12T02:42:04.400Z,100450.19
2019-05-12T02:44:24.907Z,100451.54
2019-05-12T02:46:46.386Z,100455.59
2019-05-12T02:49:07.624Z,100455.92
2019-05-12T02:51:29.763Z,100449.17
2019-05-12T02:53:54.399Z,100448.84
2019-05-12T02:56:15.797Z,100449.86
2019-05-12T02:58:41.267Z,100456.09
2019-05-12T03:01:05.120Z,100460.13
2019-05-12T03:03:25.307Z,100459.31
2019-05-12T03:05:47.273Z,100470.44
2019-05-12T03:08:08.510Z,100474.66
2019-05-12T03:10:30.591Z,100476.86
2019-05-12T03:12:54.919Z,100479.76
2019-05-12T03:15:15.706Z,100486.18
2019-05-12T03:17:36.925Z,100484.63
2019-05-12T03:19:59.442Z,100479.76
2019-05-12T03:22:24.962Z,100479.56
2019-05-12T03:24:44.973Z,100489.51
2019-05-12T03:27:06.187Z,100494.61
2019-05-12T03:29:27.916Z,100497.80
2019-05-12T03:31:50.297Z,100499.16
2019-05-12T03:34:18.623Z,100507.25
2019-05-12T03:36:42.686Z,100514.53
2019-05-12T03:39:04.382Z,100525.95
2019-05-12T03:41:25.869Z,100522.11
2019-05-12T03:43:47.291Z,100516.38
2019-05-12T03:46:09.334Z,100524.80
2019-05-12T03:48:34.736Z,100532.58
2019-05-12T03:50:54.306Z,100532.08
2019-05-12T03:53:16.429Z,100536.63
2019-05-12T03:55:41.983Z,100539.33
2019-05-12T03:58:04.368Z,100543.90
2019-05-12T04:00:25.023Z,100543.05
2019-05-12T04:02:47.068Z,100548.44
2019-05-12T04:05:09.053Z,100546.27
2019-05-12T04:07:30.682Z,100552.50
2019-05-12T04:09:54.684Z,100543.38
2019-05-12T04:12:15.549Z,100550.98
2019-05-12T04:14:37.491Z,100556.52
2019-05-12T04:16:59.137Z,100566.63
2019-05-12T04:19:21.326Z,100568.93
2019-05-12T04:21:44.643Z,100573.97
2019-05-12T04:24:07.001Z,100581.52
2019-05-12T04:26:28.276Z,100591.10
2019-05-12T04:28:49.917Z,100594.27
2019-05-12T04:31:11.788Z,100595.78
2019-05-12T04:33:34.764Z,100601.81
2019-05-12T04:35:56.155Z,100608.73
2019-05-12T04:38:18.002Z,100611.44
2019-05-12T04:40:40.031Z,100610.45
2019-05-12T04:43:01.295Z,100618.02
2019-05-12T04:45:25.468Z,100613.78
2019-05-12T04:47:46.946Z,100619.51
2019-05-12T04:50:08.932Z,100619.02
2019-05-12T04:52:30.918Z,100628.80
2019-05-12T04:54:55.219Z,100637.06
2019-05-12T04:57:15.622Z,100636.38
2019-05-12T04:59:37.574Z,100639.61
2019-05-12T05:01:58.880Z,100647.37
2019-05-12T05:04:20.793Z,100646.36
2019-05-12T05:06:44.889Z,100652.45
2019-05-12T05:09:05.716Z,100653.80
2019-05-12T05:11:27.201Z,100655.16
2019-05-12T05:13:49.316Z,100666.98
2019-05-12T05:16:14.147Z,100674.06
2019-05-12T05:18:34.563Z,100681.02
2019-05-12T05:20:55.726Z,100683.88
2019-05-12T05:23:17.807Z,100685.39
2019-05-12T05:25:39.729Z,100688.25
2019-05-12T05:28:03.708Z,100692.14
2019-05-12T05:30:24.868Z,100693.98
2019-05-12T05:32:46.545Z,100696.05
2019-05-12T05:35:08.730Z,100700.41
2019-05-12T05:37:30.921Z,100707.02
2019-05-12T05:39:54.038Z,100712.42
2019-05-12T05:42:16.128Z,100715.65
2019-05-12T05:44:38.141Z,100719.70
2019-05-12T05:47:00.553Z,100727.80
2019-05-12T05:49:23.786Z,100727.47
2019-05-12T05:51:53.719Z,100740.98
2019-05-12T05:54:08.275Z,100747.40
2019-05-12T05:56:39.728Z,100748.22
2019-05-12T05:58:54.598Z,100744.36
2019-05-12T06:01:16.264Z,100749.77
2019-05-12T06:03:38.354Z,100756.02
2019-05-12T06:06:01.506Z,100746.24
2019-05-12T06:08:23.796Z,100751.11
2019-05-12T06:10:45.624Z,100750.78
2019-05-12T06:13:07.438Z,100757.05
2019-05-12T06:15:29.781Z,100753.67
2019-05-12T06:17:53.806Z,100762.11
2019-05-12T06:20:16.023Z,100758.75
2019-05-12T06:25:17.548Z,100770.70
2019-05-12T06:27:40.069Z,100773.08
2019-05-12T06:30:05.416Z,100777.13
2019-05-12T06:32:25.133Z,100779.00
2019-05-12T06:34:50.784Z,100780.35
2019-05-12T06:37:16.936Z,100780.88
2019-05-12T06:39:34.351Z,100778.17
2019-05-12T06:42:01.899Z,100782.23
2019-05-12T06:44:20.587Z,100787.62
2019-05-12T06:46:44.207Z,100793.03
2019-05-12T06:49:12.833Z,100792.17
2019-05-12T06:51:29.852Z,100792.50
2019-05-12T06:53:53.488Z,100797.91
2019-05-12T06:56:19.781Z,100797.08
2019-05-12T06:58:39.458Z,100802.98
2019-05-12T07:01:04.437Z,100804.66
2019-05-12T07:03:28.408Z,100808.71
2019-05-12T07:05:47.071Z,100809.71
2019-05-12T07:08:09.482Z,100808.70
2019-05-12T07:10:41.601Z,100807.16
2019-05-12T07:13:01.462Z,100811.88
2019-05-12T07:15:17.395Z,100817.61
2019-05-12T07:17:43.602Z,100819.98
2019-05-12T07:20:04.012Z,100817.61
2019-05-12T07:22:25.892Z,100819.26
2019-05-12T07:24:50.531Z,100824.66
2019-05-12T07:27:11.399Z,100835.31
2019-05-12T07:29:34.213Z,100835.80
2019-05-12T07:31:55.960Z,100843.08
2019-05-12T07:34:17.581Z,100839.52
2019-05-12T07:36:39.541Z,100839.03
2019-05-12T07:39:04.045Z,100844.09
2019-05-12T07:41:23.959Z,100848.67
2019-05-12T07:43:50.481Z,100836.81
2019-05-12T07:46:10.544Z,100842.22
2019-05-12T07:48:33.394Z,100838.50
2019-05-12T07:50:59.174Z,100828.55
2019-05-12T07:53:18.988Z,100832.77
2019-05-12T07:55:47.467Z,100837.15
2019-05-12T07:58:12.907Z,100835.64
2019-05-12T08:00:27.148Z,100836.01
2019-05-12T08:02:51.133Z,100845.27
2019-05-12T08:05:19.571Z,100835.48
2019-05-12T08:07:35.643Z,100838.52
2019-05-12T08:09:57.349Z,100842.38
2019-05-12T08:12:20.997Z,100842.38
2019-05-12T08:14:43.921Z,100845.61
2019-05-12T08:17:11.017Z,100851.34
2019-05-12T08:19:28.715Z,100851.16
2019-05-12T08:21:53.599Z,100849.99
2019-05-12T08:24:15.000Z,100853.19
2019-05-12T08:26:37.142Z,100855.73
2019-05-12T08:28:59.279Z,100847.29
2019-05-12T08:31:23.527Z,100856.60
2019-05-12T08:33:45.321Z,100869.06
2019-05-12T08:36:11.333Z,100866.06
2019-05-12T08:38:29.627Z,100868.42
2019-05-12T08:40:54.138Z,100863.84
2019-05-12T08:43:15.095Z,100860.13
2019-05-12T08:45:39.550Z,100857.95
2019-05-12T08:48:03.691Z,100866.89
2019-05-12T08:50:31.724Z,100865.53
2019-05-12T08:52:48.482Z,100860.47
2019-05-12T08:55:13.842Z,100855.20
2019-05-12T08:57:40.617Z,100861.13
2019-05-12T09:00:02.757Z,100876.48
2019-05-12T09:02:20.359Z,100876.48
2019-05-12T09:04:50.797Z,100874.64
2019-05-12T09:07:05.183Z,100876.52
2019-05-12T09:09:27.536Z,100882.70
2019-05-12T09:11:48.766Z,100877.73
2019-05-12T09:14:10.534Z,100880.44
2019-05-12T09:16:33.540Z,100883.48
2019-05-12T09:18:56.064Z,100879.28
2019-05-12T09:21:18.161Z,100877.94
2019-05-12T09:23:41.283Z,100885.02
2019-05-12T09:26:04.138Z,100880.45
2019-05-12T09:28:25.495Z,100881.98
2019-05-12T09:30:49.425Z,100885.17
2019-05-12T09:33:10.826Z,100894.77
2019-05-12T09:35:35.028Z,100886.86
2019-05-12T09:37:55.830Z,100902.87
2019-05-12T09:40:20.574Z,100898.17
2019-05-12T09:42:40.481Z,100899.72
2019-05-12T09:45:07.426Z,100890.61
2019-05-12T09:47:27.775Z,100906.28
2019-05-12T09:49:50.294Z,100898.63
2019-05-12T09:52:13.938Z,100900.45
2019-05-12T09:54:40.681Z,100899.73
2019-05-12T09:56:59.807Z,100907.48
2019-05-12T09:59:23.627Z,100896.63
2019-05-12T10:01:46.149Z,100907.43
2019-05-12T10:04:10.397Z,100908.73
2019-05-12T10:06:33.976Z,100907.72
2019-05-12T10:08:55.201Z,100907.94
2019-05-12T10:11:20.744Z,100907.22
2019-05-12T10:13:40.683Z,100915.31
2019-05-12T10:16:07.406Z,100910.38
2019-05-12T10:18:26.655Z,100903.78
2019-05-12T10:20:49.066Z,100917.43
2019-05-12T10:23:18.185Z,100919.17
2019-05-12T10:25:35.285Z,100920.06
2019-05-12T10:27:56.547Z,100922.95
2019-05-12T10:30:18.480Z,100917.36
2019-05-12T10:32:39.800Z,100917.70
2019-05-12T10:35:01.666Z,100920.58
2019-05-12T10:37:25.389Z,100917.39
2019-05-12T10:39:47.353Z,100924.97
2019-05-12T10:42:18.103Z,100918.02
2019-05-12T10:44:41.140Z,100929.50
2019-05-12T10:47:04.417Z,100918.22
2019-05-12T10:49:25.855Z,100925.11
2019-05-12T10:51:47.831Z,100921.73
2019-05-12T10:54:13.192Z,100927.28
2019-05-12T10:56:34.836Z,100919.84
2019-05-12T10:58:55.955Z,100923.22
2019-05-12T11:01:17.664Z,100923.55
2019-05-12T11:03:43.045Z,100918.63
2019-05-12T11:06:04.939Z,100915.23
2019-05-12T11:08:25.214Z,100918.95
2019-05-12T11:10:50.430Z,100926.05
2019-05-12T11:13:10.420Z,100922.67
2019-05-12T11:15:34.218Z,100928.58
2019-05-12T11:17:56.233Z,100930.44
2019-05-12T11:20:18.083Z,100938.55
2019-05-12T11:22:40.056Z,100926.54
2019-05-12T11:25:04.160Z,100928.23
2019-05-12T11:27:24.457Z,100932.42
2019-05-12T11:29:49.465Z,100933.09
2019-05-12T11:32:09.869Z,100941.02
2019-05-12T11:34:33.550Z,100935.61
2019-05-12T11:36:55.327Z,100934.25
2019-05-12T11:39:17.150Z,100942.02
2019-05-12T11:41:38.779Z,100937.28
2019-05-12T11:44:00.677Z,100935.25
2019-05-12T11:46:23.881Z,100945.58
2019-05-12T11:51:08.254Z,100944.22
2019-05-12T11:53:32.263Z,100939.50
2019-05-12T11:55:56.737Z,100942.22
2019-05-12T11:58:18.563Z,100931.80
2019-05-12T12:00:40.613Z,100942.80
2019-05-12T12:03:03.763Z,100950.38
2019-05-12T12:05:24.434Z,100950.72
2019-05-12T12:07:51.190Z,100952.89
2019-05-12T12:10:10.429Z,100956.27
2019-05-12T12:12:34.482Z,100956.75
2019-05-12T12:14:55.439Z,100947.81
2019-05-12T12:17:17.248Z,100949.31
2019-05-12T12:19:43.864Z,100956.21
2019-05-12T12:22:06.675Z,100943.71
2019-05-12T12:24:31.387Z,100954.17
2019-05-12T12:26:53.746Z,100957.73
2019-05-12T12:29:14.817Z,100950.79
2019-05-12T12:31:38.848Z,100959.58
2019-05-12T12:34:00.366Z,100957.06
2019-05-12T12:36:23.647Z,100970.25
2019-05-12T12:38:45.035Z,100972.09
2019-05-12T12:41:06.670Z,100972.76
2019-05-12T12:43:28.675Z,100970.25
2019-05-12T12:45:51.332Z,100976.81
2019-05-12T12:48:13.767Z,100969.39
2019-05-12T12:50:35.060Z,100975.84
2019-05-12T12:52:57.188Z,100969.44
2019-05-12T12:55:19.186Z,100968.91
2019-05-12T12:57:46.373Z,100968.75
2019-05-12T13:00:04.369Z,100979.56
2019-05-12T13:02:25.844Z,100981.26
2019-05-12T13:04:50.352Z,100985.50
2019-05-12T13:07:10.963Z,100978.41
2019-05-12T13:09:33.457Z,100985.50
2019-05-12T13:11:55.701Z,100978.22
2019-05-12T13:14:17.285Z,100984.97
2019-05-12T13:16:39.620Z,100978.89
2019-05-12T13:19:03.763Z,100986.14
2019-05-12T13:21:24.708Z,100987.68
2019-05-12T13:23:46.864Z,100991.39
2019-05-12T13:26:08.025Z,100995.44
2019-05-12T13:28:30.131Z,100985.65
2019-05-12T13:30:55.879Z,100992.73
2019-05-12T13:33:18.247Z,100985.45
2019-05-12T13:35:38.519Z,100989.51
2019-05-12T13:38:00.786Z,100992.73
2019-05-12T13:40:23.478Z,100994.05
2019-05-12T13:42:45.478Z,100990.66
2019-05-12T13:45:07.196Z,100994.03
2019-05-12T13:47:35.480Z,100991.14
2019-05-12T13:49:54.428Z,100995.34
2019-05-12T13:52:20.248Z,100997.37
2019-05-12T13:54:39.165Z,100999.05
2019-05-12T13:57:03.753Z,100997.02
2019-05-12T13:59:25.520Z,100995.14
2019-05-12T14:01:47.686Z,100991.27
2019-05-12T14:04:10.217Z,100991.90
2019-05-12T14:06:37.994Z,100981.09
2019-05-12T14:09:00.816Z,100984.12
2019-05-12T14:11:23.953Z,100995.27
2019-05-12T14:13:45.835Z,100994.26
2019-05-12T14:16:10.512Z,101003.05
2019-05-12T14:18:33.041Z,101007.48
2019-05-12T14:21:00.237Z,100996.49
2019-05-12T14:23:19.097Z,101010.20
2019-05-12T14:25:43.728Z,101016.63
2019-05-12T14:28:09.295Z,101011.89
2019-05-12T14:30:27.901Z,101007.50
2019-05-12T14:32:54.406Z,101008.99
2019-05-12T14:35:12.266Z,101014.73
2019-05-12T14:37:34.234Z,101015.41
2019-05-12T14:39:56.612Z,101012.89
2019-05-12T14:42:17.973Z,101010.88
2019-05-12T14:44:44.843Z,101005.12
2019-05-12T14:47:03.930Z,101014.25
2019-05-12T14:49:30.393Z,101014.59
2019-05-12T14:51:49.461Z,101010.20
2019-05-12T14:54:13.279Z,101018.45
2019-05-12T14:56:34.165Z,100999.72
2019-05-12T14:59:00.486Z,101007.83
2019-05-12T15:01:18.940Z,101014.59
2019-05-12T15:03:42.263Z,101014.78
2019-05-12T15:06:07.248Z,101018.31
2019-05-12T15:08:36.327Z,101015.80
2019-05-12T15:10:50.546Z,101019.33
2019-05-12T15:13:13.902Z,101024.59
